Time;durP1;ratioP1;P1;durP2;ratioP2;P2;SDS_P1;SDS_P2;PMS_P1;PMS_P2;Temp;Humidity;BMP_temperature;BMP_pressure;BME280_temperature;BME280_humidity;BME280_pressure;Samples;Min_cycle;Max_cycle;Signal;HPM_P1;HPM_P2
2021/12/13 06:00:53;;;;;;;9.90;6.80;;;8.20;97.20;;;;;;1723898;28;20638;-76
2021/12/13 06:02:00;;;;;;;7.70;6.72;;;8.20;97.20;;;;;;1721392;28;20574;-76
2021/12/13 06:03:06;;;;;;;9.80;6.43;;;8.20;97.20;;;;;;1721566;28;20617;-76
2021/12/13 06:04:12;;;;;;;8.80;6.15;;;8.30;97.20;;;;;;1721345;28;20197;-76
2021/12/13 06:05:08;;;;;;;6.75;6.15;;;8.30;97.20;;;;;;1721038;28;20578;-76
2021/12/13 06:06:06;;;;;;;7.55;6.57;;;8.30;97.20;;;;;;1721289;28;20209;-76
2021/12/13 06:06:58;;;;;;;12.35;8.00;;;8.30;97.20;;;;;;1721364;28;20205;-76
2021/12/13 06:07:54;;;;;;;8.32;6.95;;;8.30;97.20;;;;;;1721529;28;20209;-76
2021/12/13 06:08:49;;;;;;;7.45;6.55;;;8.30;97.20;;;;;;1720675;28;20211;-75
2021/12/13 06:09:44;;;;;;;7.30;6.15;;;8.30;97.20;;;;;;1723610;28;20220;-76
2021/12/13 06:10:42;;;;;;;9.00;8.10;;;8.30;97.20;;;;;;1727656;28;20715;-76
2021/12/13 06:11:34;;;;;;;9.63;8.00;;;8.20;97.20;;;;;;1724593;28;20199;-76
2021/12/13 06:12:32;;;;;;;9.35;8.30;;;8.20;97.20;;;;;;1721887;28;20194;-76
2021/12/13 06:13:55;;;;;;;9.57;7.85;;;8.20;97.20;;;;;;1721959;28;20654;-76
2021/12/13 06:14:46;;;;;;;11.15;8.43;;;8.20;97.20;;;;;;1720727;28;20205;-77
2021/12/13 06:15:40;;;;;;;9.70;8.70;;;8.20;97.20;;;;;;1723950;28;20284;-76
2021/12/13 06:16:53;;;;;;;12.80;9.63;;;8.20;97.20;;;;;;1726965;28;20471;-76
2021/12/13 06:17:49;;;;;;;11.70;9.25;;;8.20;97.20;;;;;;1728103;28;20229;-76
2021/12/13 06:18:44;;;;;;;11.43;8.77;;;8.20;97.20;;;;;;1727798;28;20208;-76
2021/12/13 06:19:41;;;;;;;13.13;9.10;;;8.20;97.20;;;;;;1728216;28;20215;-76
2021/12/13 06:20:38;;;;;;;13.73;9.75;;;8.20;97.20;;;;;;1727380;28;20687;-76
2021/12/13 06:21:46;;;;;;;13.45;9.73;;;8.20;97.20;;;;;;1727953;28;20205;-76
2021/12/13 06:22:38;;;;;;;14.07;9.88;;;8.20;97.20;;;;;;1727987;28;20259;-75
2021/12/13 06:23:31;;;;;;;13.30;10.27;;;8.20;97.20;;;;;;1728000;28;20200;-76
2021/12/13 06:24:26;;;;;;;14.45;9.95;;;8.20;97.20;;;;;;1728049;28;20287;-76
2021/12/13 06:25:21;;;;;;;12.48;9.25;;;8.20;97.20;;;;;;1728051;28;20200;-76
2021/12/13 06:26:14;;;;;;;12.63;10.20;;;8.20;97.20;;;;;;1728179;28;20219;-76
2021/12/13 06:27:10;;;;;;;14.00;10.90;;;8.20;97.20;;;;;;1728212;28;20192;-76
2021/12/13 06:28:02;;;;;;;15.63;10.35;;;8.20;97.20;;;;;;1728074;28;20220;-76
2021/12/13 06:28:57;;;;;;;12.95;11.20;;;8.20;97.20;;;;;;1727502;28;20403;-76
2021/12/13 06:30:07;;;;;;;15.23;10.30;;;8.20;97.20;;;;;;1728000;28;20212;-76
2021/12/13 06:31:01;;;;;;;16.35;11.63;;;8.20;97.20;;;;;;1726846;28;20216;-76
2021/12/13 06:31:54;;;;;;;15.85;12.30;;;8.20;97.20;;;;;;1727826;28;20225;-76
2021/12/13 06:32:50;;;;;;;17.15;11.90;;;8.20;97.20;;;;;;1727833;28;20200;-76
2021/12/13 06:33:47;;;;;;;15.02;11.93;;;8.10;97.20;;;;;;1728153;28;20620;-76
2021/12/13 06:34:38;;;;;;;21.35;12.60;;;8.10;97.20;;;;;;1728065;28;20216;-76
2021/12/13 06:35:38;;;;;;;15.63;11.50;;;8.10;97.20;;;;;;1728094;28;20209;-76
2021/12/13 06:36:32;;;;;;;15.70;11.40;;;8.10;97.20;;;;;;1727903;28;20459;-76
2021/12/13 06:37:27;;;;;;;15.68;11.80;;;8.10;97.20;;;;;;1727712;28;20201;-76
2021/12/13 06:38:44;;;;;;;17.00;12.30;;;8.10;97.20;;;;;;1728109;28;20201;-75
2021/12/13 06:39:35;;;;;;;16.63;11.70;;;8.10;97.20;;;;;;1728017;28;20192;-76
2021/12/13 06:40:29;;;;;;;18.00;12.53;;;8.10;97.20;;;;;;1725127;28;20263;-76
2021/12/13 06:41:32;;;;;;;16.60;11.98;;;8.10;97.20;;;;;;1721115;28;20452;-76
2021/12/13 06:42:26;;;;;;;14.13;11.90;;;8.10;97.20;;;;;;1721248;28;20239;-76
2021/12/13 06:43:28;;;;;;;17.40;11.18;;;8.10;97.20;;;;;;1724983;28;20323;-76
2021/12/13 06:44:25;;;;;;;15.85;11.50;;;8.10;97.20;;;;;;1726887;28;20201;-76
2021/12/13 06:45:23;;;;;;;16.75;12.13;;;8.10;97.20;;;;;;1727369;28;20274;-76
2021/12/13 06:46:38;;;;;;;14.38;10.95;;;8.10;97.20;;;;;;1727323;28;20592;-77
2021/12/13 06:47:31;;;;;;;15.30;11.77;;;8.10;97.20;;;;;;1727683;28;20679;-76
2021/12/13 06:48:34;;;;;;;12.68;11.25;;;8.10;97.20;;;;;;1727816;28;20262;-76
2021/12/13 06:49:32;;;;;;;11.73;10.45;;;8.10;97.20;;;;;;1727693;28;20201;-77
2021/12/13 06:50:28;;;;;;;15.70;12.85;;;8.10;97.20;;;;;;1727190;28;20208;-77
2021/12/13 06:51:36;;;;;;;12.77;10.45;;;8.20;97.20;;;;;;1722414;28;20185;-77
2021/12/13 06:52:32;;;;;;;13.25;11.43;;;8.20;97.20;;;;;;1721085;28;20205;-76
2021/12/13 06:53:23;;;;;;;13.68;11.65;;;8.20;97.20;;;;;;1721100;28;20614;-76
2021/12/13 06:54:18;;;;;;;17.10;11.33;;;8.20;97.20;;;;;;1721204;28;20882;-77
2021/12/13 06:55:14;;;;;;;13.05;11.57;;;8.20;97.20;;;;;;1721193;28;20785;-76
2021/12/13 06:56:21;;;;;;;13.50;11.25;;;8.20;97.20;;;;;;1721070;28;20270;-76
2021/12/13 06:57:16;;;;;;;12.10;10.90;;;8.20;97.20;;;;;;1721009;28;20215;-77
2021/12/13 06:58:17;;;;;;;13.70;10.90;;;8.20;97.20;;;;;;1721038;28;20202;-76
2021/12/13 06:59:15;;;;;;;12.95;11.45;;;8.20;97.20;;;;;;1726330;28;20564;-76
2021/12/13 07:00:10;;;;;;;12.85;11.07;;;8.20;97.20;;;;;;1727844;28;20570;-76
2021/12/13 07:01:07;;;;;;;13.65;11.63;;;8.20;97.20;;;;;;1722087;28;20429;-76
2021/12/13 07:02:12;;;;;;;13.77;11.50;;;8.20;97.20;;;;;;1720957;28;20208;-76
2021/12/13 07:03:08;;;;;;;13.43;12.02;;;8.20;97.20;;;;;;1721041;28;20205;-76
2021/12/13 07:04:02;;;;;;;13.95;12.55;;;8.20;97.20;;;;;;1720963;28;20200;-77
2021/12/13 07:05:09;;;;;;;13.30;11.95;;;8.20;97.20;;;;;;1721035;28;21065;-77
2021/12/13 07:06:03;;;;;;;12.85;11.55;;;8.20;97.20;;;;;;1721109;28;20189;-77
2021/12/13 07:07:09;;;;;;;14.45;11.30;;;8.20;97.20;;;;;;1721015;28;20714;-77
2021/12/13 07:08:02;;;;;;;13.80;11.95;;;8.20;97.20;;;;;;1721089;28;20558;-77
2021/12/13 07:09:16;;;;;;;12.95;11.65;;;8.10;97.20;;;;;;1720808;28;20208;-80
2021/12/13 07:10:14;;;;;;;13.55;11.43;;;8.20;97.20;;;;;;1716867;28;20205;-80
2021/12/13 07:11:08;;;;;;;13.73;11.57;;;8.10;97.20;;;;;;1721087;28;20197;-77
2021/12/13 07:12:00;;;;;;;13.95;11.68;;;8.20;97.20;;;;;;1720970;28;20210;-77
2021/12/13 07:12:55;;;;;;;13.57;11.05;;;8.20;97.20;;;;;;1720825;28;20197;-77
2021/12/13 07:13:50;;;;;;;12.10;10.85;;;8.20;97.20;;;;;;1720744;28;20209;-77
2021/12/13 07:14:42;;;;;;;13.15;10.60;;;8.20;97.20;;;;;;1720113;28;20559;-77
2021/12/13 07:15:43;;;;;;;12.55;11.30;;;8.20;97.20;;;;;;1720255;28;20201;-77
2021/12/13 07:16:36;;;;;;;11.55;10.00;;;8.20;97.20;;;;;;1720391;28;20217;-77
2021/12/13 07:17:33;;;;;;;12.15;10.93;;;8.20;97.20;;;;;;1720399;28;20239;-77
2021/12/13 07:18:30;;;;;;;12.35;10.20;;;8.20;97.20;;;;;;1720138;28;20714;-77
2021/12/13 07:19:25;;;;;;;11.93;9.90;;;8.20;97.20;;;;;;1719922;28;20209;-77
2021/12/13 07:20:17;;;;;;;13.10;10.55;;;8.20;97.20;;;;;;1720289;28;20300;-77
2021/12/13 07:21:13;;;;;;;14.35;12.30;;;8.20;97.20;;;;;;1727222;28;20205;-77
2021/12/13 07:22:08;;;;;;;11.95;10.70;;;8.20;97.20;;;;;;1727400;28;20197;-77
2021/12/13 07:23:00;;;;;;;13.13;10.73;;;8.20;97.20;;;;;;1727247;28;20208;-77
2021/12/13 07:23:53;;;;;;;13.45;10.90;;;8.20;97.20;;;;;;1727409;28;20200;-77
2021/12/13 07:24:48;;;;;;;11.18;10.07;;;8.20;97.20;;;;;;1727327;28;20209;-77
2021/12/13 07:25:41;;;;;;;11.98;10.77;;;8.20;97.20;;;;;;1727279;28;20636;-77
2021/12/13 07:26:37;;;;;;;11.30;10.20;;;8.20;97.20;;;;;;1727576;28;20597;-77
2021/12/13 07:27:32;;;;;;;17.67;11.93;;;8.20;97.20;;;;;;1727464;28;20200;-77
2021/12/13 07:28:33;;;;;;;13.63;10.93;;;8.20;97.20;;;;;;1726831;28;20205;-77
2021/12/13 07:29:27;;;;;;;13.68;12.25;;;8.20;97.20;;;;;;1726765;28;20204;-78
2021/12/13 07:30:22;;;;;;;15.48;14.07;;;8.20;97.20;;;;;;1726796;28;20212;-77
2021/12/13 07:31:18;;;;;;;29.75;27.25;;;8.20;97.20;;;;;;1720851;28;20201;-77
2021/12/13 07:32:16;;;;;;;25.00;22.90;;;8.20;97.20;;;;;;1720971;28;20592;-77
2021/12/13 07:33:12;;;;;;;20.13;18.17;;;8.20;97.20;;;;;;1720930;28;20181;-77
2021/12/13 07:34:11;;;;;;;14.38;13.02;;;8.20;97.20;;;;;;1720817;28;20209;-77
2021/12/13 07:35:08;;;;;;;11.70;9.90;;;8.20;97.20;;;;;;1720829;28;20217;-77
2021/12/13 07:36:12;;;;;;;8.93;7.80;;;8.20;97.20;;;;;;1720778;28;20216;-77
2021/12/13 07:37:04;;;;;;;9.55;8.55;;;8.10;97.20;;;;;;1720917;28;20688;-78
2021/12/13 07:38:00;;;;;;;8.32;7.53;;;8.10;97.20;;;;;;1720728;28;20907;-77
2021/12/13 07:38:56;;;;;;;9.93;7.78;;;8.10;97.20;;;;;;1720558;28;20209;-78
2021/12/13 07:39:48;;;;;;;9.20;7.70;;;8.10;97.20;;;;;;1720756;28;20228;-78
2021/12/13 07:40:42;;;;;;;8.60;7.75;;;8.10;97.20;;;;;;1723170;28;20228;-77
2021/12/13 07:41:41;;;;;;;10.10;9.00;;;8.10;97.20;;;;;;1727692;28;20212;-77
2021/12/13 07:42:33;;;;;;;10.13;8.80;;;8.10;97.20;;;;;;1727726;28;20552;-77
2021/12/13 07:43:28;;;;;;;9.95;8.60;;;8.10;97.20;;;;;;1727483;28;20251;-77
2021/12/13 07:44:34;;;;;;;9.93;8.55;;;8.10;97.20;;;;;;1727508;28;20532;-77
2021/12/13 07:45:31;;;;;;;8.70;7.80;;;8.10;97.20;;;;;;1724400;28;20611;-78
2021/12/13 07:46:27;;;;;;;10.23;8.70;;;8.10;97.20;;;;;;1720539;28;20596;-77
2021/12/13 07:47:21;;;;;;;8.95;7.90;;;8.10;97.20;;;;;;1720772;28;20212;-77
2021/12/13 07:48:15;;;;;;;7.82;7.00;;;8.20;97.20;;;;;;1720837;28;20653;-77
2021/12/13 07:49:10;;;;;;;10.73;8.75;;;8.10;97.20;;;;;;1720424;28;20209;-77
2021/12/13 07:50:04;;;;;;;8.50;7.15;;;8.10;97.20;;;;;;1720839;28;20213;-77
2021/12/13 07:51:10;;;;;;;7.43;6.82;;;8.20;97.20;;;;;;1721865;28;20225;-77
2021/12/13 07:52:03;;;;;;;7.97;7.22;;;8.20;97.20;;;;;;1720583;28;20206;-77
2021/12/13 07:52:59;;;;;;;7.88;6.57;;;8.20;97.20;;;;;;1721018;28;20220;-77
2021/12/13 07:53:53;;;;;;;7.80;7.10;;;8.20;97.20;;;;;;1720818;28;20216;-77
2021/12/13 07:54:45;;;;;;;7.50;6.53;;;8.20;97.20;;;;;;1720608;28;20201;-77
2021/12/13 07:55:46;;;;;;;10.25;6.95;;;8.20;97.20;;;;;;1720732;28;20236;-77
2021/12/13 07:56:54;;;;;;;7.80;6.63;;;8.20;97.20;;;;;;1720868;28;20205;-77
2021/12/13 07:57:46;;;;;;;7.72;7.00;;;8.20;97.20;;;;;;1720780;28;20669;-77
2021/12/13 07:58:41;;;;;;;8.38;6.85;;;8.20;97.20;;;;;;1720686;28;20201;-77
2021/12/13 07:59:34;;;;;;;7.63;6.78;;;8.20;97.20;;;;;;1720656;28;20213;-77
2021/12/13 08:00:31;;;;;;;8.57;7.00;;;8.20;97.20;;;;;;1722984;28;20197;-77
2021/12/13 08:01:25;;;;;;;8.68;7.40;;;8.30;97.20;;;;;;1727440;28;20204;-77
2021/12/13 08:02:22;;;;;;;10.45;8.07;;;8.30;97.20;;;;;;1725329;28;20204;-77
2021/12/13 08:03:17;;;;;;;9.45;7.57;;;8.30;97.20;;;;;;1720776;28;20205;-77
2021/12/13 08:04:12;;;;;;;10.75;7.53;;;8.30;97.20;;;;;;1720598;28;20198;-77
2021/12/13 08:05:09;;;;;;;9.95;7.70;;;8.30;97.20;;;;;;1720664;28;20240;-77
2021/12/13 08:06:06;;;;;;;9.57;8.02;;;8.30;97.20;;;;;;1720601;28;20625;-77
2021/12/13 08:07:01;;;;;;;8.30;7.47;;;8.30;97.20;;;;;;1720500;28;20205;-77
2021/12/13 08:07:54;;;;;;;10.30;7.82;;;8.30;97.20;;;;;;1720770;28;20212;-77
2021/12/13 08:08:53;;;;;;;10.15;7.43;;;8.30;97.20;;;;;;1721323;28;20203;-77
2021/12/13 08:09:46;;;;;;;12.48;9.52;;;8.40;97.20;;;;;;1722973;28;20221;-77
2021/12/13 08:10:41;;;;;;;14.82;9.60;;;8.40;97.20;;;;;;1720500;28;20660;-76
2021/12/13 08:11:36;;;;;;;18.13;10.35;;;8.40;97.20;;;;;;1724203;28;20445;-76
2021/12/13 08:12:30;;;;;;;14.20;10.20;;;8.40;97.20;;;;;;1724024;28;20193;-79
2021/12/13 08:13:25;;;;;;;13.85;9.75;;;8.40;97.20;;;;;;1722558;28;20193;-77
2021/12/13 08:14:27;;;;;;;13.23;9.88;;;8.40;97.20;;;;;;1723244;28;20668;-77
2021/12/13 08:15:21;;;;;;;13.88;9.43;;;8.40;97.20;;;;;;1723278;28;20191;-76
2021/12/13 08:16:13;;;;;;;11.98;9.70;;;8.40;97.20;;;;;;1724483;28;20254;-77
2021/12/13 08:17:10;;;;;;;13.85;9.65;;;8.40;97.20;;;;;;1719950;28;20213;-77
2021/12/13 08:18:07;;;;;;;13.15;8.93;;;8.40;97.20;;;;;;1726384;28;20748;-77
2021/12/13 08:19:14;;;;;;;11.75;9.65;;;8.30;97.20;;;;;;1724092;28;20193;-77
2021/12/13 08:20:11;;;;;;;13.25;9.88;;;8.30;97.20;;;;;;1724817;28;20247;-78
2021/12/13 08:21:06;;;;;;;13.13;10.27;;;8.30;97.20;;;;;;1725113;28;20205;-77
2021/12/13 08:22:02;;;;;;;10.60;9.25;;;8.30;97.20;;;;;;1724821;28;20204;-78
2021/12/13 08:22:56;;;;;;;13.73;10.55;;;8.30;97.20;;;;;;1723398;28;20726;-78
2021/12/13 08:23:50;;;;;;;11.65;9.45;;;8.30;97.20;;;;;;1723723;28;20201;-77
2021/12/13 08:24:45;;;;;;;11.45;9.95;;;8.40;97.20;;;;;;1722202;28;20665;-77
2021/12/13 08:25:39;;;;;;;13.13;10.05;;;8.40;97.20;;;;;;1727308;28;20570;-77
2021/12/13 08:26:36;;;;;;;16.25;10.50;;;8.40;97.20;;;;;;1727483;28;20201;-78
2021/12/13 08:27:30;;;;;;;11.55;9.80;;;8.40;97.20;;;;;;1729079;28;20220;-78
2021/12/13 08:28:34;;;;;;;12.93;9.88;;;8.30;97.20;;;;;;1728752;28;20579;-77
2021/12/13 08:29:31;;;;;;;10.80;9.43;;;8.40;97.20;;;;;;1727300;28;20213;-78
2021/12/13 08:30:26;;;;;;;11.65;10.40;;;8.40;97.20;;;;;;1726007;28;20653;-78
2021/12/13 08:31:20;;;;;;;15.93;11.23;;;8.40;97.20;;;;;;1720770;28;20212;-78
2021/12/13 08:32:17;;;;;;;17.30;11.52;;;8.30;97.20;;;;;;1720976;28;20236;-77
2021/12/13 08:33:11;;;;;;;11.85;10.52;;;8.30;97.20;;;;;;1721192;28;20300;-77
2021/12/13 08:34:06;;;;;;;12.13;10.93;;;8.30;97.20;;;;;;1720433;28;20225;-77
2021/12/13 08:35:02;;;;;;;16.42;10.40;;;8.30;97.20;;;;;;1721312;28;20216;-78
2021/12/13 08:36:02;;;;;;;12.65;9.13;;;8.30;97.20;;;;;;1721616;28;20209;-78
2021/12/13 08:36:54;;;;;;;11.32;9.50;;;8.30;97.20;;;;;;1721469;28;20185;-77
2021/12/13 08:37:46;;;;;;;14.20;9.15;;;8.30;97.20;;;;;;1720902;28;20201;-77
2021/12/13 08:38:41;;;;;;;12.43;8.95;;;8.20;97.20;;;;;;1721488;28;20216;-78
2021/12/13 08:39:37;;;;;;;10.48;8.65;;;8.20;97.20;;;;;;1721559;28;20294;-78
2021/12/13 08:40:30;;;;;;;10.35;9.23;;;8.20;97.20;;;;;;1721019;28;20201;-78
2021/12/13 08:41:29;;;;;;;14.52;10.00;;;8.20;97.20;;;;;;1726177;28;20196;-78
2021/12/13 08:42:25;;;;;;;13.75;9.93;;;8.20;97.20;;;;;;1728175;28;20239;-78
2021/12/13 08:43:30;;;;;;;12.73;10.52;;;8.20;97.20;;;;;;1728341;28;20212;-77
2021/12/13 08:44:26;;;;;;;12.00;9.45;;;8.20;97.20;;;;;;1727889;28;20606;-77
2021/12/13 08:45:22;;;;;;;11.77;9.82;;;8.20;97.20;;;;;;1728282;28;20208;-78
2021/12/13 08:46:27;;;;;;;10.02;9.00;;;8.20;97.20;;;;;;1728096;28;20184;-77
2021/12/13 08:47:24;;;;;;;11.40;9.23;;;8.20;97.20;;;;;;1728008;28;20193;-78
2021/12/13 08:48:20;;;;;;;11.80;9.55;;;8.20;97.20;;;;;;1728088;28;20605;-77
2021/12/13 08:49:16;;;;;;;18.02;10.30;;;8.20;97.20;;;;;;1727658;28;20195;-77
2021/12/13 08:50:15;;;;;;;11.20;9.90;;;8.20;97.20;;;;;;1728287;28;20201;-78
2021/12/13 08:51:06;;;;;;;13.68;10.10;;;8.20;97.20;;;;;;1724028;28;20204;-77
2021/12/13 08:52:02;;;;;;;11.27;9.20;;;8.20;97.20;;;;;;1721161;28;20211;-78
2021/12/13 08:52:59;;;;;;;14.98;10.35;;;8.20;97.20;;;;;;1721765;28;20470;-78
2021/12/13 08:54:01;;;;;;;16.10;10.68;;;8.20;97.20;;;;;;1721370;28;20212;-78
2021/12/13 08:54:59;;;;;;;13.02;10.18;;;8.20;97.20;;;;;;1721203;28;20197;-77
2021/12/13 08:56:01;;;;;;;15.18;11.75;;;8.20;97.20;;;;;;1721223;28;20213;-77
2021/12/13 08:56:52;;;;;;;18.45;11.15;;;8.20;97.20;;;;;;1721333;28;20613;-78
2021/12/13 08:57:49;;;;;;;12.73;11.43;;;8.20;97.20;;;;;;1720874;28;20209;-78
2021/12/13 08:58:52;;;;;;;14.27;10.48;;;8.20;97.20;;;;;;1720823;28;20216;-78
2021/12/13 08:59:52;;;;;;;14.25;10.90;;;8.20;97.20;;;;;;1720973;28;20281;-77
2021/12/13 09:00:51;;;;;;;11.73;9.95;;;8.20;97.20;;;;;;1721440;28;20707;-78
2021/12/13 09:01:45;;;;;;;13.07;9.80;;;8.20;97.20;;;;;;1727791;28;20204;-77
2021/12/13 09:02:41;;;;;;;12.43;10.27;;;8.20;97.20;;;;;;1727851;28;20208;-78
2021/12/13 09:03:40;;;;;;;13.30;11.70;;;8.30;97.20;;;;;;1728113;28;20192;-77
2021/12/13 09:04:34;;;;;;;11.20;9.82;;;8.30;97.20;;;;;;1728075;28;20232;-78
2021/12/13 09:05:31;;;;;;;13.38;10.40;;;8.30;97.20;;;;;;1727453;28;20215;-78
2021/12/13 09:06:32;;;;;;;10.90;9.77;;;8.30;97.20;;;;;;1727947;28;20566;-78
2021/12/13 09:07:25;;;;;;;15.77;11.10;;;8.30;97.20;;;;;;1727967;28;20285;-78
2021/12/13 09:08:18;;;;;;;14.15;10.07;;;8.30;97.20;;;;;;1727537;28;20196;-78
2021/12/13 09:09:14;;;;;;;13.85;10.32;;;8.40;97.20;;;;;;1727746;28;20240;-78
2021/12/13 09:10:06;;;;;;;10.70;9.57;;;8.40;97.20;;;;;;1728316;28;20219;-78
2021/12/13 09:11:02;;;;;;;11.95;9.35;;;8.30;97.20;;;;;;1726807;28;20220;-77
2021/12/13 09:11:58;;;;;;;10.40;8.95;;;8.30;97.20;;;;;;1727922;28;20204;-78
2021/12/13 09:12:57;;;;;;;11.98;9.80;;;8.40;97.20;;;;;;1727281;28;20667;-77
2021/12/13 09:13:51;;;;;;;11.15;8.90;;;8.30;97.20;;;;;;1727496;28;20611;-77
2021/12/13 09:14:50;;;;;;;11.00;8.95;;;8.40;97.20;;;;;;1727939;28;20236;-78
2021/12/13 09:15:43;;;;;;;11.77;10.57;;;8.40;97.20;;;;;;1728020;28;20288;-77
2021/12/13 09:16:45;;;;;;;11.15;9.95;;;8.40;97.20;;;;;;1727532;28;20885;-78
2021/12/13 09:17:41;;;;;;;11.88;10.27;;;8.40;97.20;;;;;;1728149;28;20204;-77
2021/12/13 09:18:32;;;;;;;12.65;9.95;;;8.40;97.20;;;;;;1724267;28;20196;-77
2021/12/13 09:19:27;;;;;;;11.50;9.63;;;8.40;97.20;;;;;;1727345;28;20197;-78
2021/12/13 09:20:21;;;;;;;12.05;9.95;;;8.40;97.20;;;;;;1727966;28;20412;-77
2021/12/13 09:21:20;;;;;;;11.88;9.20;;;8.40;97.20;;;;;;1723667;28;20193;-78
2021/12/13 09:22:14;;;;;;;13.02;9.90;;;8.40;97.20;;;;;;1725605;28;20254;-77
2021/12/13 09:23:11;;;;;;;11.77;9.02;;;8.50;97.20;;;;;;1727080;28;20203;-78
2021/12/13 09:24:02;;;;;;;12.13;8.85;;;8.50;97.20;;;;;;1727877;28;20216;-78
2021/12/13 09:24:59;;;;;;;10.32;9.32;;;8.50;97.20;;;;;;1728754;28;20214;-77
2021/12/13 09:25:53;;;;;;;10.70;9.02;;;8.50;97.20;;;;;;1729246;28;20204;-78
2021/12/13 09:26:44;;;;;;;9.52;8.55;;;8.50;97.20;;;;;;1729467;28;20240;-77
2021/12/13 09:27:44;;;;;;;9.17;8.23;;;8.50;97.20;;;;;;1728954;28;20200;-77
2021/12/13 09:28:42;;;;;;;9.60;8.00;;;8.50;97.20;;;;;;1729511;28;20213;-78
2021/12/13 09:29:47;;;;;;;12.18;9.10;;;8.50;97.20;;;;;;1729326;28;20204;-77
2021/12/13 09:30:43;;;;;;;9.38;8.27;;;8.50;97.20;;;;;;1725471;28;20232;-77
2021/12/13 09:31:39;;;;;;;9.38;8.48;;;8.50;97.20;;;;;;1722448;28;20217;-77
2021/12/13 09:32:35;;;;;;;11.50;8.68;;;8.50;97.20;;;;;;1723175;28;20186;-77
2021/12/13 09:33:31;;;;;;;10.90;8.90;;;8.50;97.20;;;;;;1722297;28;20260;-78
2021/12/13 09:34:22;;;;;;;9.85;8.85;;;8.50;97.20;;;;;;1722586;28;20730;-78
2021/12/13 09:35:32;;;;;;;9.90;9.00;;;8.50;97.20;;;;;;1722177;28;20582;-78
2021/12/13 09:36:29;;;;;;;10.70;9.60;;;8.50;97.20;;;;;;1722331;28;20487;-78
2021/12/13 09:37:20;;;;;;;9.73;8.60;;;8.50;97.20;;;;;;1722722;28;20202;-77
2021/12/13 09:38:36;;;;;;;9.40;7.75;;;8.50;97.20;;;;;;1722388;28;20197;-78
2021/12/13 09:39:29;;;;;;;9.23;8.15;;;8.50;97.20;;;;;;1722838;28;20619;-77
2021/12/13 09:40:31;;;;;;;10.45;8.25;;;8.50;97.20;;;;;;1724019;28;20295;-78
2021/12/13 09:41:37;;;;;;;10.02;8.18;;;8.50;97.20;;;;;;1729357;28;20708;-78
2021/12/13 09:42:28;;;;;;;10.35;8.50;;;8.50;97.20;;;;;;1729746;28;20239;-78
2021/12/13 09:43:22;;;;;;;10.00;8.00;;;8.50;97.20;;;;;;1728948;28;20259;-78
2021/12/13 09:44:24;;;;;;;8.77;7.88;;;8.50;97.20;;;;;;1729067;28;20447;-77
2021/12/13 09:45:21;;;;;;;9.63;8.63;;;8.60;97.20;;;;;;1729597;28;20193;-77
2021/12/13 09:46:17;;;;;;;8.73;7.82;;;8.60;97.20;;;;;;1729401;28;20196;-77
2021/12/13 09:47:11;;;;;;;10.13;8.55;;;8.60;97.20;;;;;;1728951;28;20200;-77
2021/12/13 09:48:16;;;;;;;10.30;8.65;;;8.60;97.20;;;;;;1729357;28;20293;-77
2021/12/13 09:49:13;;;;;;;8.85;7.45;;;8.70;97.20;;;;;;1728617;28;20267;-78
2021/12/13 09:50:12;;;;;;;8.88;7.53;;;8.70;97.20;;;;;;1729307;28;20724;-77
2021/12/13 09:51:15;;;;;;;8.77;7.72;;;8.70;97.20;;;;;;1726781;28;20189;-77
2021/12/13 09:52:11;;;;;;;9.02;7.65;;;8.70;97.20;;;;;;1729478;28;20201;-77
2021/12/13 09:53:10;;;;;;;9.15;8.15;;;8.80;97.20;;;;;;1728340;28;20560;-77
2021/12/13 09:54:05;;;;;;;9.40;7.65;;;8.80;97.20;;;;;;1728380;28;20204;-78
2021/12/13 09:55:01;;;;;;;8.30;7.50;;;8.90;97.20;;;;;;1728494;28;20695;-77
2021/12/13 09:55:53;;;;;;;7.90;7.20;;;8.90;97.20;;;;;;1728431;28;20284;-77
2021/12/13 09:56:49;;;;;;;8.40;7.60;;;9.00;97.20;;;;;;1728354;28;20699;-77
2021/12/13 09:57:49;;;;;;;7.55;6.55;;;9.00;97.20;;;;;;1728693;28;20192;-77
2021/12/13 09:58:43;;;;;;;7.28;6.57;;;9.00;97.20;;;;;;1729372;28;20189;-78
2021/12/13 09:59:38;;;;;;;8.65;7.18;;;9.10;97.20;;;;;;1729258;28;20320;-77
2021/12/13 10:00:34;;;;;;;7.80;6.97;;;9.10;97.20;;;;;;1729587;28;20208;-78
2021/12/13 10:01:31;;;;;;;7.75;6.97;;;9.10;97.20;;;;;;1729307;28;20183;-78
2021/12/13 10:02:29;;;;;;;8.50;7.15;;;9.10;97.20;;;;;;1729907;28;20189;-78
2021/12/13 10:03:25;;;;;;;8.38;7.00;;;9.20;97.20;;;;;;1727808;28;20219;-78
2021/12/13 10:04:20;;;;;;;7.10;6.40;;;9.20;97.20;;;;;;1729218;28;20652;-78
2021/12/13 10:05:14;;;;;;;6.65;6.05;;;9.20;97.20;;;;;;1729837;28;20653;-78
2021/12/13 10:06:08;;;;;;;7.07;6.35;;;9.20;97.20;;;;;;1729341;28;20201;-78
2021/12/13 10:07:04;;;;;;;6.95;6.32;;;9.20;97.20;;;;;;1729601;28;20653;-77
2021/12/13 10:08:02;;;;;;;6.10;5.35;;;9.20;97.20;;;;;;1729193;28;20185;-78
2021/12/13 10:08:57;;;;;;;7.35;6.28;;;9.20;97.20;;;;;;1729206;28;20193;-78
2021/12/13 10:09:52;;;;;;;8.85;6.03;;;9.30;97.20;;;;;;1729209;28;20196;-78
2021/12/13 10:10:46;;;;;;;8.05;6.47;;;9.30;97.20;;;;;;1728982;28;20223;-77
2021/12/13 10:11:42;;;;;;;7.28;6.60;;;9.30;97.20;;;;;;1729224;28;20197;-77
2021/12/13 10:12:39;;;;;;;10.80;6.70;;;9.30;97.20;;;;;;1729140;28;20197;-78
2021/12/13 10:13:36;;;;;;;6.60;6.00;;;9.30;97.20;;;;;;1729082;28;20315;-78
2021/12/13 10:14:31;;;;;;;5.95;5.25;;;9.30;97.20;;;;;;1729526;28;20280;-78
2021/12/13 10:15:26;;;;;;;7.30;5.68;;;9.30;97.20;;;;;;1729141;28;20217;-78
2021/12/13 10:16:26;;;;;;;7.35;6.32;;;9.30;97.20;;;;;;1729304;28;20779;-78
2021/12/13 10:17:21;;;;;;;7.15;5.85;;;9.30;97.20;;;;;;1729126;28;20276;-77
2021/12/13 10:18:14;;;;;;;7.40;6.35;;;9.40;97.20;;;;;;1729312;28;20255;-77
2021/12/13 10:19:11;;;;;;;6.22;5.63;;;9.40;97.20;;;;;;1729103;28;20197;-77
2021/12/13 10:20:09;;;;;;;7.00;6.30;;;9.40;97.20;;;;;;1729632;28;20617;-78
2021/12/13 10:21:03;;;;;;;6.00;5.40;;;9.50;97.20;;;;;;1729250;28;20213;-78
2021/12/13 10:21:55;;;;;;;7.05;5.93;;;9.50;97.20;;;;;;1729525;28;20204;-78
2021/12/13 10:22:46;;;;;;;7.18;6.47;;;9.50;97.20;;;;;;1729340;28;20204;-78
2021/12/13 10:23:43;;;;;;;7.72;6.25;;;9.50;97.20;;;;;;1729426;28;20207;-77
2021/12/13 10:24:38;;;;;;;7.43;6.15;;;9.50;97.20;;;;;;1729091;28;20200;-77
2021/12/13 10:25:34;;;;;;;7.70;6.88;;;9.60;97.20;;;;;;1728851;28;20207;-77
2021/12/13 10:26:28;;;;;;;9.10;7.00;;;9.60;97.20;;;;;;1729489;28;20216;-77
2021/12/13 10:27:21;;;;;;;6.88;6.18;;;9.60;97.20;;;;;;1729295;28;20203;-78
2021/12/13 10:28:15;;;;;;;7.60;6.78;;;9.60;97.20;;;;;;1729609;28;20201;-78
2021/12/13 10:29:09;;;;;;;8.13;7.32;;;9.60;97.20;;;;;;1728728;28;20258;-78
2021/12/13 10:30:04;;;;;;;7.47;6.75;;;9.60;97.20;;;;;;1729421;28;20215;-78
2021/12/13 10:31:01;;;;;;;9.18;7.28;;;9.70;97.20;;;;;;1728819;28;20982;-77
2021/12/13 10:31:56;;;;;;;7.20;6.50;;;9.70;97.20;;;;;;1729752;28;20204;-78
2021/12/13 10:32:49;;;;;;;7.80;7.00;;;9.70;97.20;;;;;;1728671;28;20185;-77
2021/12/13 10:33:40;;;;;;;7.35;6.28;;;9.70;97.20;;;;;;1728702;28;20208;-78
2021/12/13 10:34:35;;;;;;;6.82;6.13;;;9.70;97.20;;;;;;1728942;28;20200;-77
2021/12/13 10:35:28;;;;;;;6.82;5.43;;;9.70;97.20;;;;;;1730007;28;20204;-78
2021/12/13 10:36:21;;;;;;;6.72;6.03;;;9.70;97.20;;;;;;1728460;28;20207;-78
2021/12/13 10:37:15;;;;;;;8.05;6.38;;;9.70;97.20;;;;;;1729850;28;20222;-78
2021/12/13 10:38:10;;;;;;;6.68;6.07;;;9.70;97.20;;;;;;1729492;28;20201;-78
2021/12/13 10:39:07;;;;;;;6.82;6.05;;;9.70;97.20;;;;;;1728922;28;20239;-78
2021/12/13 10:40:05;;;;;;;6.13;5.43;;;9.70;97.20;;;;;;1729649;28;20215;-77
2021/12/13 10:40:59;;;;;;;6.45;5.35;;;9.70;97.20;;;;;;1730196;28;20216;-78
2021/12/13 10:41:54;;;;;;;6.72;5.30;;;9.70;97.20;;;;;;1729761;28;20274;-78
2021/12/13 10:42:49;;;;;;;5.63;4.05;;;9.70;97.20;;;;;;1730219;28;20589;-78
2021/12/13 10:43:43;;;;;;;3.13;2.83;;;9.70;97.20;;;;;;1729811;28;20211;-78
2021/12/13 10:44:38;;;;;;;2.58;2.38;;;9.80;97.20;;;;;;1729506;28;20202;-78
2021/12/13 10:45:35;;;;;;;2.90;2.60;;;9.80;97.20;;;;;;1730370;28;20201;-78
2021/12/13 10:46:30;;;;;;;4.35;2.67;;;9.80;97.20;;;;;;1726257;28;20194;-77
2021/12/13 10:47:25;;;;;;;4.20;3.90;;;9.90;97.20;;;;;;1722209;28;20206;-78
2021/12/13 10:48:18;;;;;;;6.97;6.32;;;9.90;97.20;;;;;;1723664;28;20217;-78
2021/12/13 10:49:14;;;;;;;7.30;6.00;;;9.90;97.20;;;;;;1722564;28;20632;-78
2021/12/13 10:50:09;;;;;;;5.75;5.20;;;9.90;97.20;;;;;;1723543;28;20565;-78
2021/12/13 10:51:05;;;;;;;6.22;5.63;;;9.90;97.20;;;;;;1727393;28;20227;-78
2021/12/13 10:52:00;;;;;;;6.72;5.40;;;9.90;97.20;;;;;;1730455;28;20208;-78
2021/12/13 10:52:53;;;;;;;7.65;6.25;;;9.80;97.20;;;;;;1730195;28;20209;-78
2021/12/13 10:53:48;;;;;;;6.40;5.80;;;9.80;97.20;;;;;;1730005;28;20204;-78
2021/12/13 10:54:44;;;;;;;6.70;4.93;;;9.80;97.20;;;;;;1730746;28;20205;-78
2021/12/13 10:55:44;;;;;;;5.80;5.25;;;9.80;97.20;;;;;;1730417;28;20204;-78